Time;durP1;ratioP1;P1;durP2;ratioP2;P2;SDS_P1;SDS_P2;PMS_P1;PMS_P2;Temp;Humidity;BMP_temperature;BMP_pressure;BME280_temperature;BME280_humidity;BME280_pressure;Samples;Min_cycle;Max_cycle;Signal;HPM_P1;HPM_P2
2023/08/01 03:00:39;;;;;;;;;;;15.20;99.90;;;;;;5918815;23;20338;-84
2023/08/01 03:03:04;;;;;;;;;;;15.20;99.90;;;;;;4981757;28;20447;-84
2023/08/01 03:08:34;;;;;;;;;;;15.10;99.90;;;;;;4997445;28;19973;-84
2023/08/01 03:10:59;;;;;;;;;;;15.00;99.90;;;;;;5010192;28;20399;-83
2023/08/01 03:13:25;;;;;;;;;;;14.90;99.90;;;;;;4977409;28;20273;-83
2023/08/01 03:15:51;;;;;;;;;;;14.90;99.90;;;;;;4977765;28;19922;-83
2023/08/01 03:18:17;;;;;;;;;;;14.80;99.90;;;;;;4977637;28;19922;-81
2023/08/01 03:20:42;;;;;;;;;;;14.80;99.90;;;;;;4977401;28;19972;-84
2023/08/01 03:23:08;;;;;;;;;;;14.70;99.90;;;;;;4977668;28;19991;-85
2023/08/01 03:25:33;;;;;;;;;;;14.70;99.90;;;;;;4977798;28;20378;-84
2023/08/01 03:27:59;;;;;;;;;;;14.70;99.90;;;;;;4979132;28;20411;-81
2023/08/01 03:30:25;;;;;;;;;;;14.70;99.90;;;;;;4989383;28;20312;-80
2023/08/01 03:32:54;;;;;;;;;;;14.60;99.90;;;;;;5004738;28;20297;-82
2023/08/01 03:35:20;;;;;;;;;;;14.50;99.90;;;;;;4981289;28;19922;-82
2023/08/01 03:37:45;;;;;;;;;;;14.60;99.90;;;;;;4977183;28;20296;-82
2023/08/01 03:40:11;;;;;;;;;;;14.50;99.90;;;;;;4976922;28;19921;-82
2023/08/01 03:42:37;;;;;;;;;;;14.60;99.90;;;;;;4994544;28;20020;-83
2023/08/01 03:45:03;;;;;;;;;;;14.50;99.90;;;;;;4994931;28;19922;-86
2023/08/01 03:47:28;;;;;;;;;;;14.50;99.90;;;;;;4977034;28;19980;-82
2023/08/01 03:49:54;;;;;;;;;;;14.50;99.90;;;;;;4976977;28;19922;-85
2023/08/01 03:52:20;;;;;;;;;;;14.50;99.90;;;;;;4960864;28;20277;-82
2023/08/01 03:54:46;;;;;;;;;;;14.50;99.90;;;;;;4994446;28;19926;-80
2023/08/01 03:57:11;;;;;;;;;;;14.50;99.90;;;;;;4977800;28;19921;-81
2023/08/01 03:59:37;;;;;;;;;;;14.50;99.90;;;;;;4994545;28;19922;-83
2023/08/01 04:02:02;;;;;;;;;;;14.50;99.90;;;;;;4994007;28;19933;-82
2023/08/01 04:04:30;;;;;;;;;;;14.40;99.90;;;;;;4960989;28;20397;-82
2023/08/01 04:06:56;;;;;;;;;;;14.40;99.90;;;;;;4976522;28;19922;-83
2023/08/01 04:09:22;;;;;;;;;;;14.40;99.90;;;;;;4993793;28;19921;-81
2023/08/01 04:11:47;;;;;;;;;;;14.50;99.90;;;;;;4998289;28;19929;-82
2023/08/01 04:14:13;;;;;;;;;;;14.40;99.90;;;;;;4980617;28;20000;-80
2023/08/01 04:16:39;;;;;;;;;;;14.50;99.90;;;;;;4998252;28;19926;-83
2023/08/01 04:19:04;;;;;;;;;;;14.50;99.90;;;;;;5013456;28;19968;-80
2023/08/01 04:21:30;;;;;;;;;;;14.50;99.90;;;;;;4997782;28;19973;-81
2023/08/01 04:23:56;;;;;;;;;;;14.40;99.90;;;;;;4980382;28;20301;-82
2023/08/01 04:26:21;;;;;;;;;;;14.50;99.90;;;;;;4980794;28;19968;-81
2023/08/01 04:28:47;;;;;;;;;;;14.50;99.90;;;;;;4996959;28;19929;-82
2023/08/01 04:31:13;;;;;;;;;;;14.50;99.90;;;;;;4997917;28;19928;-82
2023/08/01 04:33:39;;;;;;;;;;;14.50;99.90;;;;;;4980224;28;19926;-81
2023/08/01 04:36:04;;;;;;;;;;;14.40;99.90;;;;;;4997842;28;20324;-82
2023/08/01 04:38:30;;;;;;;;;;;14.50;99.90;;;;;;4980224;28;20366;-81
2023/08/01 04:40:55;;;;;;;;;;;14.50;99.90;;;;;;4979780;28;19927;-82
2023/08/01 04:43:21;;;;;;;;;;;14.50;99.90;;;;;;4997897;28;19921;-81
2023/08/01 04:45:46;;;;;;;;;;;14.50;99.90;;;;;;4997580;28;19921;-79
2023/08/01 04:48:12;;;;;;;;;;;14.50;99.90;;;;;;4997625;28;19922;-83
2023/08/01 04:50:38;;;;;;;;;;;14.50;99.90;;;;;;4979895;28;19921;-83
2023/08/01 04:53:03;;;;;;;;;;;14.50;99.90;;;;;;4997262;28;19921;-82
2023/08/01 04:55:29;;;;;;;;;;;14.60;99.90;;;;;;4979898;28;19929;-80
2023/08/01 04:57:55;;;;;;;;;;;14.60;99.90;;;;;;4980034;28;19980;-81
2023/08/01 05:00:21;;;;;;;;;;;14.60;99.90;;;;;;4997171;28;19922;-84
2023/08/01 05:02:49;;;;;;;;;;;14.60;99.90;;;;;;4956821;28;19926;-80
2023/08/01 05:05:16;;;;;;;;;;;14.70;99.90;;;;;;4977505;28;19922;-81
2023/08/01 05:07:41;;;;;;;;;;;14.60;99.90;;;;;;4992610;28;19922;-82
2023/08/01 05:10:07;;;;;;;;;;;14.70;99.90;;;;;;4977490;28;19922;-82
2023/08/01 05:12:33;;;;;;;;;;;14.70;99.90;;;;;;4992791;28;19925;-83
2023/08/01 05:14:58;;;;;;;;;;;14.70;99.90;;;;;;4992420;28;19926;-81
2023/08/01 05:17:24;;;;;;;;;;;14.70;99.90;;;;;;4977395;28;19922;-83
2023/08/01 05:19:50;;;;;;;;;;;14.70;99.90;;;;;;4977693;28;19929;-81
2023/08/01 05:22:15;;;;;;;;;;;14.80;99.90;;;;;;4991677;28;20016;-82
2023/08/01 05:24:41;;;;;;;;;;;14.80;99.90;;;;;;4977284;28;19922;-82
2023/08/01 05:27:07;;;;;;;;;;;14.80;99.90;;;;;;4977272;28;20266;-81
2023/08/01 05:29:32;;;;;;;;;;;14.80;99.90;;;;;;4992035;28;19922;-81
2023/08/01 05:31:58;;;;;;;;;;;14.90;99.90;;;;;;4976975;28;19926;-81
2023/08/01 05:34:23;;;;;;;;;;;14.90;99.90;;;;;;4977367;28;20326;-81
2023/08/01 05:36:50;;;;;;;;;;;15.00;99.90;;;;;;4976231;28;20018;-81
2023/08/01 05:39:16;;;;;;;;;;;14.90;99.90;;;;;;4977200;28;19922;-82
2023/08/01 05:41:42;;;;;;;;;;;15.00;99.90;;;;;;4976968;28;19930;-83
2023/08/01 05:44:08;;;;;;;;;;;15.00;99.90;;;;;;4976777;28;19926;-81
2023/08/01 05:46:33;;;;;;;;;;;15.00;99.90;;;;;;4977271;28;20403;-82
2023/08/01 05:48:59;;;;;;;;;;;15.00;99.90;;;;;;4977058;28;19929;-80
2023/08/01 05:51:25;;;;;;;;;;;15.00;99.90;;;;;;4991994;28;20325;-82
2023/08/01 05:53:50;;;;;;;;;;;15.00;99.90;;;;;;4991756;28;19922;-81
2023/08/01 05:56:16;;;;;;;;;;;15.00;99.90;;;;;;4976999;28;19926;-83
2023/08/01 05:58:42;;;;;;;;;;;15.10;99.90;;;;;;4976788;28;20321;-80
2023/08/01 06:01:09;;;;;;;;;;;15.10;99.90;;;;;;4959186;28;19934;-82
2023/08/01 06:03:35;;;;;;;;;;;15.10;99.90;;;;;;4991627;28;19926;-81
2023/08/01 06:06:00;;;;;;;;;;;15.10;99.90;;;;;;4991780;28;20013;-81
2023/08/01 06:08:26;;;;;;;;;;;15.10;99.90;;;;;;4976900;28;19929;-80
2023/08/01 06:10:51;;;;;;;;;;;15.10;99.90;;;;;;4991178;28;19973;-81
2023/08/01 06:13:17;;;;;;;;;;;15.10;99.90;;;;;;4991661;28;20321;-82
2023/08/01 06:15:43;;;;;;;;;;;15.10;99.90;;;;;;4959384;28;20321;-83
2023/08/01 06:18:08;;;;;;;;;;;15.10;99.90;;;;;;4976529;28;19926;-80
2023/08/01 06:20:34;;;;;;;;;;;15.10;99.90;;;;;;4958696;28;19948;-79
2023/08/01 06:22:59;;;;;;;;;;;15.00;99.90;;;;;;4976452;28;20036;-80
2023/08/01 06:25:25;;;;;;;;;;;15.10;99.90;;;;;;4991208;28;19922;-80
2023/08/01 06:27:51;;;;;;;;;;;15.00;99.90;;;;;;4991049;28;20022;-80
2023/08/01 06:30:16;;;;;;;;;;;15.10;99.90;;;;;;4959159;28;20009;-80
2023/08/01 06:32:42;;;;;;;;;;;15.10;99.90;;;;;;4975847;28;20009;-80
2023/08/01 06:35:08;;;;;;;;;;;15.10;99.90;;;;;;4976205;28;19926;-80
2023/08/01 06:37:33;;;;;;;;;;;15.10;99.90;;;;;;4991187;28;20339;-80
2023/08/01 06:39:59;;;;;;;;;;;15.20;99.90;;;;;;4991092;28;19922;-78
2023/08/01 06:42:25;;;;;;;;;;;15.20;99.90;;;;;;4958420;28;19933;-81
2023/08/01 06:44:50;;;;;;;;;;;15.30;99.90;;;;;;4991053;28;19969;-79
2023/08/01 06:47:16;;;;;;;;;;;15.30;99.90;;;;;;4990641;28;19922;-82
2023/08/01 06:49:41;;;;;;;;;;;15.30;99.90;;;;;;4958742;28;19969;-80
2023/08/01 06:52:07;;;;;;;;;;;15.30;99.90;;;;;;4958255;28;19964;-81
2023/08/01 06:54:36;;;;;;;;;;;15.40;99.90;;;;;;4975970;28;19926;-81
2023/08/01 06:57:02;;;;;;;;;;;15.50;99.90;;;;;;4990851;28;20261;-80
2023/08/01 06:59:27;;;;;;;;;;;15.50;99.90;;;;;;4958069;28;19922;-80
2023/08/01 07:01:53;;;;;;;;;;;15.50;99.90;;;;;;4975434;28;19980;-80
2023/08/01 07:04:18;;;;;;;;;;;15.50;99.90;;;;;;4990633;28;19933;-81
2023/08/01 07:06:44;;;;;;;;;;;15.50;99.90;;;;;;4975639;28;20477;-80
2023/08/01 07:09:10;;;;;;;;;;;15.50;99.90;;;;;;4990538;28;20234;-81
2023/08/01 07:11:35;;;;;;;;;;;15.50;99.90;;;;;;4975302;28;20297;-78
2023/08/01 07:14:01;;;;;;;;;;;15.50;99.90;;;;;;4975482;28;20004;-79
2023/08/01 07:16:27;;;;;;;;;;;15.40;99.90;;;;;;4975165;28;19922;-79
2023/08/01 07:18:52;;;;;;;;;;;15.40;99.90;;;;;;4975118;28;19922;-79
2023/08/01 07:21:19;;;;;;;;;;;15.40;99.90;;;;;;4957717;28;19938;-80
2023/08/01 07:23:48;;;;;;;;;;;15.50;99.90;;;;;;4975500;28;20285;-81
2023/08/01 07:26:14;;;;;;;;;;;15.50;99.90;;;;;;4975516;28;19929;-79
2023/08/01 07:28:39;;;;;;;;;;;15.50;99.90;;;;;;4975399;28;19922;-82
2023/08/01 07:31:05;;;;;;;;;;;15.50;99.90;;;;;;4974975;28;19929;-82
2023/08/01 07:33:32;;;;;;;;;;;15.40;99.90;;;;;;4957617;28;19923;-82
2023/08/01 07:35:58;;;;;;;;;;;15.50;99.90;;;;;;4975244;28;19934;-82
2023/08/01 07:38:23;;;;;;;;;;;15.50;99.90;;;;;;4957704;28;19922;-81
2023/08/01 07:40:49;;;;;;;;;;;15.40;99.90;;;;;;4975177;28;20013;-84
2023/08/01 07:43:15;;;;;;;;;;;15.40;99.90;;;;;;4975221;28;19925;-82
2023/08/01 07:45:41;;;;;;;;;;;15.50;99.90;;;;;;4989523;28;20139;-84
2023/08/01 07:48:06;;;;;;;;;;;15.50;99.90;;;;;;4975364;28;19929;-81
2023/08/01 07:50:32;;;;;;;;;;;15.50;99.90;;;;;;4975263;28;19922;-81
2023/08/01 07:52:57;;;;;;;;;;;15.50;99.90;;;;;;4975287;28;19930;-81
2023/08/01 07:55:23;;;;;;;;;;;15.40;99.90;;;;;;4974129;28;19922;-81
2023/08/01 07:57:48;;;;;;;;;;;15.40;99.90;;;;;;4957643;28;19926;-79
2023/08/01 08:00:14;;;;;;;;;;;15.40;99.90;;;;;;4973115;28;19977;-83
2023/08/01 08:02:52;;;;;;;;;;;15.40;99.90;;;;;;4974914;28;19926;-77
2023/08/01 08:05:20;;;;;;;;;;;15.30;99.90;;;;;;4990176;28;19929;-76
2023/08/01 08:07:48;;;;;;;;;;;15.20;99.90;;;;;;4974696;28;19922;-79
2023/08/01 08:10:14;;;;;;;;;;;15.20;99.90;;;;;;4974663;28;19928;-81
2023/08/01 08:12:40;;;;;;;;;;;15.20;99.90;;;;;;4973390;28;19922;-83
2023/08/01 08:15:06;;;;;;;;;;;15.20;99.90;;;;;;4974453;28;20329;-81
2023/08/01 08:17:31;;;;;;;;;;;15.20;99.90;;;;;;4974446;28;19929;-79
2023/08/01 08:19:57;;;;;;;;;;;15.20;99.90;;;;;;5005900;28;19922;-81
2023/08/01 08:22:23;;;;;;;;;;;15.20;99.90;;;;;;5005718;28;19926;-82
2023/08/01 08:24:48;;;;;;;;;;;15.20;99.90;;;;;;4974568;28;19926;-83
2023/08/01 08:27:17;;;;;;;;;;;15.10;99.90;;;;;;4975012;28;19922;-78
2023/08/01 08:29:43;;;;;;;;;;;15.10;99.90;;;;;;4974550;28;19922;-81
2023/08/01 08:32:11;;;;;;;;;;;15.10;99.90;;;;;;4974730;28;19933;-79
2023/08/01 08:34:38;;;;;;;;;;;15.10;99.90;;;;;;4972999;28;19922;-79
2023/08/01 08:37:04;;;;;;;;;;;15.10;99.90;;;;;;4974659;28;19922;-80
2023/08/01 08:39:29;;;;;;;;;;;15.00;99.90;;;;;;4974723;28;19922;-79
2023/08/01 08:41:55;;;;;;;;;;;15.10;99.90;;;;;;4974671;28;20271;-81
2023/08/01 08:44:20;;;;;;;;;;;15.10;99.90;;;;;;4973511;28;20288;-81
2023/08/01 08:46:49;;;;;;;;;;;15.20;99.90;;;;;;4974419;28;19929;-80
2023/08/01 08:49:16;;;;;;;;;;;15.10;99.90;;;;;;4957093;28;19972;-79
2023/08/01 08:51:42;;;;;;;;;;;15.20;99.90;;;;;;4974592;28;19922;-81
2023/08/01 08:54:08;;;;;;;;;;;15.20;99.90;;;;;;4973103;28;20017;-78
2023/08/01 08:56:35;;;;;;;;;;;15.20;99.90;;;;;;4975052;28;20392;-81
2023/08/01 08:59:00;;;;;;;;;;;15.20;99.90;;;;;;4977959;28;19926;-78
2023/08/01 09:01:26;;;;;;;;;;;15.20;99.90;;;;;;4992383;28;19978;-81
2023/08/01 09:03:53;;;;;;;;;;;15.10;99.90;;;;;;4977592;28;19922;-80
2023/08/01 09:06:24;;;;;;;;;;;15.20;99.90;;;;;;4977967;28;19926;-78
2023/08/01 09:08:53;;;;;;;;;;;15.20;99.90;;;;;;4992749;28;19922;-79
2023/08/01 09:11:19;;;;;;;;;;;15.20;99.90;;;;;;4977570;28;20020;-78
2023/08/01 09:13:44;;;;;;;;;;;15.20;99.90;;;;;;4977432;28;19976;-79
2023/08/01 09:16:11;;;;;;;;;;;15.30;99.90;;;;;;4977661;28;19929;-81
2023/08/01 09:18:52;;;;;;;;;;;15.40;99.90;;;;;;4977500;28;19922;-78
2023/08/01 09:21:21;;;;;;;;;;;15.60;99.90;;;;;;4977377;28;19930;-79
2023/08/01 09:23:47;;;;;;;;;;;15.70;99.90;;;;;;5008556;28;19922;-81
2023/08/01 09:26:17;;;;;;;;;;;15.90;99.90;;;;;;4977205;28;19922;-77
2023/08/01 09:28:42;;;;;;;;;;;16.00;99.90;;;;;;4977456;28;19928;-81
2023/08/01 09:31:09;;;;;;;;;;;16.10;99.90;;;;;;4975539;28;20253;-81
2023/08/01 09:33:40;;;;;;;;;;;16.20;99.90;;;;;;4977574;28;19929;-81
2023/08/01 09:36:06;;;;;;;;;;;16.30;99.90;;;;;;4977399;28;20017;-75
2023/08/01 09:38:35;;;;;;;;;;;16.40;99.90;;;;;;4975803;28;19929;-80
2023/08/01 09:41:02;;;;;;;;;;;16.30;99.90;;;;;;4977183;28;20285;-80
2023/08/01 09:43:35;;;;;;;;;;;16.30;99.90;;;;;;4975723;28;20020;-80
2023/08/01 09:46:06;;;;;;;;;;;16.40;99.90;;;;;;4960204;28;19929;-78
2023/08/01 09:48:32;;;;;;;;;;;16.40;99.90;;;;;;4977115;28;19922;-81
2023/08/01 09:51:11;;;;;;;;;;;16.40;99.90;;;;;;4976680;28;19969;-78
2023/08/01 09:53:50;;;;;;;;;;;16.40;99.90;;;;;;4977183;28;19922;-80
2023/08/01 09:56:18;;;;;;;;;;;16.40;99.90;;;;;;4976586;28;19922;-81
2023/08/01 09:58:44;;;;;;;;;;;16.40;99.90;;;;;;4975646;28;19922;-80
2023/08/01 10:01:10;;;;;;;;;;;16.40;99.90;;;;;;4976888;28;19934;-80
2023/08/01 10:03:36;;;;;;;;;;;16.70;99.90;;;;;;4976738;28;19922;-78
2023/08/01 10:06:05;;;;;;;;;;;16.70;99.90;;;;;;4976503;28;19928;-78
2023/08/01 10:08:33;;;;;;;;;;;16.70;99.90;;;;;;4974972;28;19922;-78
2023/08/01 10:10:59;;;;;;;;;;;16.60;99.90;;;;;;4976730;28;20013;-80
2023/08/01 10:13:26;;;;;;;;;;;16.60;99.90;;;;;;5008189;28;19922;-80
2023/08/01 10:15:52;;;;;;;;;;;16.60;99.90;;;;;;4976703;28;20293;-81
2023/08/01 10:18:18;;;;;;;;;;;16.60;99.90;;;;;;4976410;28;20449;-82
2023/08/01 10:20:44;;;;;;;;;;;16.60;99.90;;;;;;4976860;28;20286;-78
2023/08/01 10:23:11;;;;;;;;;;;16.60;99.90;;;;;;5008472;28;19929;-78
2023/08/01 10:25:37;;;;;;;;;;;16.70;99.90;;;;;;4975115;28;19929;-78
2023/08/01 10:28:06;;;;;;;;;;;16.60;99.90;;;;;;4976623;28;19929;-76
2023/08/01 10:30:32;;;;;;;;;;;16.60;99.90;;;;;;4976444;28;20274;-80
2023/08/01 10:33:17;;;;;;;;;;;16.70;99.90;;;;;;4976327;28;19926;-78
2023/08/01 10:35:43;;;;;;;;;;;16.90;99.90;;;;;;4958205;28;19954;-82
2023/08/01 10:38:15;;;;;;;;;;;17.00;99.90;;;;;;4976821;28;20020;-75
2023/08/01 10:40:42;;;;;;;;;;;17.00;99.90;;;;;;4975605;28;20012;-78
2023/08/01 10:43:24;;;;;;;;;;;17.20;99.90;;;;;;4974580;28;20305;-75
2023/08/01 10:46:05;;;;;;;;;;;17.40;99.90;;;;;;4976169;28;19922;-78
2023/08/01 10:48:31;;;;;;;;;;;17.50;99.90;;;;;;5007037;28;19987;-75
2023/08/01 10:50:57;;;;;;;;;;;17.40;99.90;;;;;;4974477;28;20386;-75
2023/08/01 10:53:22;;;;;;;;;;;17.30;99.90;;;;;;4975702;28;19929;-78
2023/08/01 10:55:48;;;;;;;;;;;17.30;99.90;;;;;;4958595;28;19926;-78
2023/08/01 10:58:14;;;;;;;;;;;17.30;99.90;;;;;;4974385;28;19922;-79
2023/08/01 11:00:41;;;;;;;;;;;17.30;99.90;;;;;;4975317;28;19930;-74
2023/08/01 11:03:06;;;;;;;;;;;17.30;99.90;;;;;;5006678;28;19930;-74
2023/08/01 11:05:32;;;;;;;;;;;17.10;99.90;;;;;;4975776;28;20271;-79
2023/08/01 11:08:01;;;;;;;;;;;17.10;99.90;;;;;;4974205;28;19972;-75
2023/08/01 11:10:28;;;;;;;;;;;17.00;99.90;;;;;;5006398;28;19938;-78
2023/08/01 11:12:54;;;;;;;;;;;17.00;99.90;;;;;;4976040;28;19929;-79
2023/08/01 11:15:23;;;;;;;;;;;17.20;99.90;;;;;;4974318;28;19928;-78
2023/08/01 11:17:49;;;;;;;;;;;17.30;99.90;;;;;;4975611;28;20020;-78
2023/08/01 11:20:16;;;;;;;;;;;17.40;99.90;;;;;;4973150;28;19922;-78
2023/08/01 11:23:00;;;;;;;;;;;17.60;99.90;;;;;;4973896;28;20278;-78
2023/08/01 11:25:36;;;;;;;;;;;17.60;99.90;;;;;;4975107;28;20386;-79
2023/08/01 11:28:03;;;;;;;;;;;17.50;99.90;;;;;;4975350;28;19929;-79
2023/08/01 11:30:38;;;;;;;;;;;17.00;99.90;;;;;;4975592;28;20084;-79
2023/08/01 11:33:14;;;;;;;;;;;16.70;99.90;;;;;;4975002;28;19922;-78
2023/08/01 11:35:40;;;;;;;;;;;16.50;99.90;;;;;;4975347;28;20291;-80
2023/08/01 11:38:06;;;;;;;;;;;16.30;99.90;;;;;;4975350;28;20013;-80
2023/08/01 11:40:32;;;;;;;;;;;16.20;99.90;;;;;;4975805;28;19922;-80
2023/08/01 11:43:01;;;;;;;;;;;16.30;99.90;;;;;;4958733;28;19949;-79
2023/08/01 11:45:35;;;;;;;;;;;16.50;99.90;;;;;;5006235;28;20353;-79
2023/08/01 11:48:01;;;;;;;;;;;16.70;99.90;;;;;;4973675;28;19969;-79
2023/08/01 11:50:27;;;;;;;;;;;16.90;99.90;;;;;;4989856;28;19929;-80
2023/08/01 11:52:52;;;;;;;;;;;17.00;99.90;;;;;;4974832;28;19922;-74
2023/08/01 11:55:19;;;;;;;;;;;17.20;99.90;;;;;;4973508;28;19926;-79
2023/08/01 11:57:51;;;;;;;;;;;17.30;99.90;;;;;;4975029;28;20005;-78
2023/08/01 12:00:21;;;;;;;;;;;17.30;99.90;;;;;;4975078;28;19956;-78
2023/08/01 12:02:46;;;;;;;;;;;17.40;99.90;;;;;;4974582;28;20381;-79
2023/08/01 12:05:20;;;;;;;;;;;17.40;99.90;;;;;;5006131;28;19929;-76
2023/08/01 12:07:46;;;;;;;;;;;17.40;99.90;;;;;;4973381;28;19968;-76
2023/08/01 12:10:11;;;;;;;;;;;17.20;99.90;;;;;;4973440;28;19926;-79
2023/08/01 12:12:43;;;;;;;;;;;16.70;99.90;;;;;;4974419;28;19922;-79
2023/08/01 12:15:09;;;;;;;;;;;16.30;99.90;;;;;;4973429;28;19926;-75
2023/08/01 12:17:34;;;;;;;;;;;16.20;99.90;;;;;;4974670;28;19953;-80
2023/08/01 12:20:00;;;;;;;;;;;16.00;99.90;;;;;;4974909;28;19974;-77
2023/08/01 12:22:25;;;;;;;;;;;16.10;99.90;;;;;;4973341;28;20297;-77
2023/08/01 12:24:53;;;;;;;;;;;16.10;99.90;;;;;;5005900;28;19922;-81
2023/08/01 12:27:19;;;;;;;;;;;16.30;99.90;;;;;;5006173;28;20409;-77
2023/08/01 12:29:47;;;;;;;;;;;16.40;99.90;;;;;;4975150;28;19929;-77
2023/08/01 12:32:13;;;;;;;;;;;16.50;99.90;;;;;;4977943;28;20335;-81
2023/08/01 12:34:39;;;;;;;;;;;16.50;99.90;;;;;;4978534;28;19933;-77
2023/08/01 12:37:05;;;;;;;;;;;16.50;99.90;;;;;;4961901;28;19926;-80
2023/08/01 12:39:31;;;;;;;;;;;16.50;99.90;;;;;;4978486;28;19977;-77
2023/08/01 12:41:57;;;;;;;;;;;16.40;99.90;;;;;;4978303;28;20297;-77
2023/08/01 12:44:22;;;;;;;;;;;16.50;99.90;;;;;;4998020;28;19930;-79
2023/08/01 12:46:48;;;;;;;;;;;16.60;99.90;;;;;;4980383;28;19932;-76
2023/08/01 12:49:13;;;;;;;;;;;16.90;99.90;;;;;;4979973;28;19945;-79
2023/08/01 12:51:39;;;;;;;;;;;17.10;99.90;;;;;;4997501;28;20029;-79
2023/08/01 12:54:04;;;;;;;;;;;17.40;99.90;;;;;;4979982;28;19973;-78
2023/08/01 12:56:33;;;;;;;;;;;17.60;99.90;;;;;;4997608;28;19960;-77
2023/08/01 12:58:58;;;;;;;;;;;17.80;99.90;;;;;;4980383;28;20075;-77
2023/08/01 13:01:24;;;;;;;;;;;17.90;99.90;;;;;;4997285;28;19933;-79
2023/08/01 13:03:49;;;;;;;;;;;17.90;99.90;;;;;;4997948;28;19922;-75
2023/08/01 13:06:15;;;;;;;;;;;17.90;99.90;;;;;;4980414;28;19922;-78
2023/08/01 13:08:43;;;;;;;;;;;18.00;99.90;;;;;;4997191;28;19929;-80
2023/08/01 13:11:12;;;;;;;;;;;18.10;99.90;;;;;;4997235;28;19926;-80
2023/08/01 13:13:38;;;;;;;;;;;18.10;99.90;;;;;;4995768;28;19922;-76
2023/08/01 13:16:04;;;;;;;;;;;18.20;99.90;;;;;;4997757;28;19972;-79
2023/08/01 13:18:29;;;;;;;;;;;18.20;99.90;;;;;;4997943;28;19929;-80
2023/08/01 13:20:56;;;;;;;;;;;18.10;99.90;;;;;;4997017;28;19926;-73
2023/08/01 13:23:22;;;;;;;;;;;18.10;99.90;;;;;;4979583;28;20373;-78
2023/08/01 13:25:48;;;;;;;;;;;17.90;99.90;;;;;;4979642;28;19928;-80
2023/08/01 13:28:14;;;;;;;;;;;17.80;99.90;;;;;;4996997;28;20290;-77
2023/08/01 13:30:40;;;;;;;;;;;17.90;99.90;;;;;;4996539;28;19922;-79
2023/08/01 13:33:05;;;;;;;;;;;18.00;99.90;;;;;;4997626;28;19922;-79
2023/08/01 13:35:31;;;;;;;;;;;18.10;99.90;;;;;;4996853;28;19922;-77
2023/08/01 13:37:57;;;;;;;;;;;18.20;99.90;;;;;;4997354;28;20370;-79
2023/08/01 13:40:24;;;;;;;;;;;18.20;99.90;;;;;;4979074;28;19922;-79
2023/08/01 13:42:50;;;;;;;;;;;18.20;99.90;;;;;;4995622;28;19926;-79
2023/08/01 13:45:15;;;;;;;;;;;18.10;99.90;;;;;;4978862;28;19944;-78
2023/08/01 13:47:41;;;;;;;;;;;18.00;99.90;;;;;;4978916;28;20016;-79
2023/08/01 13:50:06;;;;;;;;;;;17.80;99.90;;;;;;4978758;28;20019;-76
2023/08/01 13:52:32;;;;;;;;;;;17.50;99.90;;;;;;4978803;28;19928;-79
2023/08/01 13:55:02;;;;;;;;;;;17.20;99.90;;;;;;4978910;28;19922;-80
2023/08/01 13:57:28;;;;;;;;;;;17.00;99.90;;;;;;4978989;28;20333;-78
2023/08/01 13:59:54;;;;;;;;;;;16.80;99.90;;;;;;4978927;28;19973;-79
2023/08/01 14:02:19;;;;;;;;;;;16.50;99.90;;;;;;4978492;28;19933;-80
2023/08/01 14:04:50;;;;;;;;;;;16.50;99.90;;;;;;4996509;28;19972;-80
2023/08/01 14:07:32;;;;;;;;;;;16.50;99.90;;;;;;4978729;28;20259;-77
2023/08/01 14:10:01;;;;;;;;;;;16.50;99.90;;;;;;4995732;28;20346;-79
2023/08/01 14:12:30;;;;;;;;;;;16.60;99.90;;;;;;4978589;28;20335;-79
2023/08/01 14:14:55;;;;;;;;;;;16.80;99.90;;;;;;4962342;28;19968;-76
2023/08/01 14:17:31;;;;;;;;;;;16.90;99.90;;;;;;4978738;28;19965;-76
2023/08/01 14:19:57;;;;;;;;;;;17.00;99.90;;;;;;4993989;28;20274;-79
2023/08/01 14:22:22;;;;;;;;;;;17.00;99.90;;;;;;4978047;28;19925;-77
2023/08/01 14:24:51;;;;;;;;;;;17.00;99.90;;;;;;4994629;28;19925;-78
2023/08/01 14:27:17;;;;;;;;;;;17.00;99.90;;;;;;4978075;28;19921;-78
2023/08/01 14:29:45;;;;;;;;;;;17.00;99.90;;;;;;4995414;28;19922;-78
2023/08/01 14:32:11;;;;;;;;;;;17.20;99.90;;;;;;4995395;28;20365;-78
2023/08/01 14:34:37;;;;;;;;;;;17.30;99.90;;;;;;4978026;28;19960;-78
2023/08/01 14:37:03;;;;;;;;;;;17.40;99.90;;;;;;4996125;28;19921;-79
2023/08/01 14:39:28;;;;;;;;;;;17.40;99.90;;;;;;4978968;28;20321;-79
2023/08/01 14:41:54;;;;;;;;;;;17.30;99.90;;;;;;4978020;28;19953;-77
2023/08/01 14:44:19;;;;;;;;;;;17.30;99.90;;;;;;4978580;28;19928;-78
2023/08/01 14:46:46;;;;;;;;;;;17.20;99.90;;;;;;4995092;28;19922;-78
2023/08/01 14:49:11;;;;;;;;;;;17.10;99.90;;;;;;4995350;28;19972;-77
2023/08/01 14:51:37;;;;;;;;;;;17.00;99.90;;;;;;4977682;28;20370;-77
2023/08/01 14:54:02;;;;;;;;;;;16.80;99.90;;;;;;4977623;28;19922;-79
2023/08/01 14:56:32;;;;;;;;;;;16.60;99.90;;;;;;4995338;28;19925;-78
2023/08/01 14:58:58;;;;;;;;;;;16.60;99.90;;;;;;4993733;28;19929;-79
2023/08/01 15:01:24;;;;;;;;;;;16.50;99.90;;;;;;4977477;28;19933;-78
2023/08/01 15:04:03;;;;;;;;;;;;;;;;;;;;;
2023/08/01 15:06:38;;;;;;;;;;;16.50;99.90;;;;;;4977603;28;19973;-79
2023/08/01 15:09:13;;;;;;;;;;;16.60;99.90;;;;;;4995255;28;20020;-80
2023/08/01 15:11:52;;;;;;;;;;;;;;;;;;;;;
2023/08/01 15:14:18;;;;;;;;;;;16.70;99.90;;;;;;5033797;28;19944;-80
2023/08/01 15:16:43;;;;;;;;;;;16.80;99.90;;;;;;5034507;28;19924;-76
2023/08/01 15:19:09;;;;;;;;;;;17.00;99.90;;;;;;5034340;28;19979;-77
2023/08/01 15:21:34;;;;;;;;;;;17.00;99.90;;;;;;5017174;28;19921;-79
2023/08/01 15:24:02;;;;;;;;;;;16.90;99.90;;;;;;5016070;28;20605;-81
2023/08/01 15:26:44;;;;;;;;;;;16.90;99.90;;;;;;5016350;28;19921;-78
2023/08/01 15:29:10;;;;;;;;;;;16.80;99.90;;;;;;5033740;28;20463;-79
2023/08/01 15:31:35;;;;;;;;;;;16.90;99.90;;;;;;5033961;28;19964;-78
2023/08/01 15:34:01;;;;;;;;;;;17.00;99.90;;;;;;5034083;28;19983;-79
2023/08/01 15:36:27;;;;;;;;;;;17.00;99.90;;;;;;5016067;28;19921;-78
2023/08/01 15:38:53;;;;;;;;;;;17.00;99.90;;;;;;5016257;28;19921;-79
2023/08/01 15:41:19;;;;;;;;;;;17.10;99.90;;;;;;5033581;28;19948;-80
2023/08/01 15:43:44;;;;;;;;;;;17.10;99.90;;;;;;5034007;28;19921;-77
2023/08/01 15:46:11;;;;;;;;;;;17.00;99.90;;;;;;5016268;28;20373;-78
2023/08/01 15:48:37;;;;;;;;;;;17.00;99.90;;;;;;5033885;28;20016;-77
2023/08/01 15:51:03;;;;;;;;;;;17.00;99.90;;;;;;5034383;28;19928;-80
2023/08/01 15:53:28;;;;;;;;;;;17.00;99.90;;;;;;5016117;28;20408;-78
2023/08/01 15:56:04;;;;;;;;;;;17.00;99.90;;;;;;5016190;28;19922;-76
2023/08/01 15:58:29;;;;;;;;;;;17.00;99.90;;;;;;5016058;28;20376;-77
2023/08/01 16:00:56;;;;;;;;;;;17.00;99.90;;;;;;5033860;28;19975;-78
2023/08/01 16:03:22;;;;;;;;;;;17.00;99.90;;;;;;4999739;28;19921;-79
2023/08/01 16:05:49;;;;;;;;;;;17.20;99.90;;;;;;5035395;28;19921;-79
2023/08/01 16:08:14;;;;;;;;;;;17.30;99.90;;;;;;5037845;28;19921;-77
2023/08/01 16:10:41;;;;;;;;;;;17.40;99.90;;;;;;5020642;28;19929;-78
2023/08/01 16:13:07;;;;;;;;;;;17.40;99.90;;;;;;5037379;28;20343;-78
2023/08/01 16:15:32;;;;;;;;;;;17.40;99.90;;;;;;5038437;28;20055;-77
2023/08/01 16:17:58;;;;;;;;;;;17.50;99.90;;;;;;5020575;28;19964;-78
2023/08/01 16:20:23;;;;;;;;;;;17.50;99.90;;;;;;5020186;28;19930;-76
2023/08/01 16:22:49;;;;;;;;;;;17.40;99.90;;;;;;5019809;28;19948;-79
2023/08/01 16:25:15;;;;;;;;;;;17.40;99.90;;;;;;5037476;28;20011;-78
2023/08/01 16:27:41;;;;;;;;;;;17.30;99.90;;;;;;5038021;28;19925;-76
2023/08/01 16:30:07;;;;;;;;;;;17.30;99.90;;;;;;5037700;28;19928;-76
2023/08/01 16:32:33;;;;;;;;;;;17.20;99.90;;;;;;5037557;28;19964;-76
2023/08/01 16:34:58;;;;;;;;;;;17.10;99.90;;;;;;5019835;28;19921;-77
2023/08/01 16:37:24;;;;;;;;;;;17.00;99.90;;;;;;5019753;28;19928;-77
2023/08/01 16:39:52;;;;;;;;;;;16.80;99.90;;;;;;5020170;28;19983;-79
2023/08/01 16:42:18;;;;;;;;;;;16.70;99.90;;;;;;5019366;28;19933;-78
2023/08/01 16:44:43;;;;;;;;;;;16.60;99.90;;;;;;5037242;28;20410;-79
2023/08/01 16:47:09;;;;;;;;;;;16.50;99.90;;;;;;5037051;28;19983;-78
2023/08/01 16:49:34;;;;;;;;;;;16.50;99.90;;;;;;5019361;28;19921;-77
2023/08/01 16:52:00;;;;;;;;;;;16.60;99.90;;;;;;5019081;28;19979;-80
2023/08/01 16:54:25;;;;;;;;;;;16.60;99.90;;;;;;5037039;28;19921;-77
2023/08/01 16:56:51;;;;;;;;;;;16.60;99.90;;;;;;5002717;28;19921;-74
2023/08/01 16:59:17;;;;;;;;;;;16.50;99.90;;;;;;5019062;28;19983;-79
2023/08/01 17:01:42;;;;;;;;;;;16.50;99.90;;;;;;5019111;28;20072;-80
2023/08/01 17:04:08;;;;;;;;;;;16.50;99.90;;;;;;5036966;28;19979;-79
2023/08/01 17:06:33;;;;;;;;;;;16.60;99.90;;;;;;5018850;28;20334;-80
2023/08/01 17:08:59;;;;;;;;;;;16.80;99.90;;;;;;5018951;28;20359;-79
2023/08/01 17:11:24;;;;;;;;;;;16.90;99.90;;;;;;5018819;28;20300;-80
2023/08/01 17:13:50;;;;;;;;;;;17.00;99.90;;;;;;5018908;28;20040;-78
2023/08/01 17:16:16;;;;;;;;;;;17.10;99.90;;;;;;5018516;28;19921;-77
2023/08/01 17:18:41;;;;;;;;;;;17.20;99.90;;;;;;5017766;28;19926;-76